sensor_id;sensor_type;location;lat;lon;timestamp;temperature;humidity
17489;DHT22;8861;52.644;4.734;2023-02-15T00:01:55;2.80;99.90
17489;DHT22;8861;52.644;4.734;2023-02-15T00:04:25;2.70;99.90
17489;DHT22;8861;52.644;4.734;2023-02-15T00:07:13;2.70;99.90
17489;DHT22;8861;52.644;4.734;2023-02-15T00:09:40;2.60;99.90
17489;DHT22;8861;52.644;4.734;2023-02-15T00:12:07;2.60;99.90
17489;DHT22;8861;52.644;4.734;2023-02-15T00:14:34;2.60;99.90
17489;DHT22;8861;52.644;4.734;2023-02-15T00:17:01;2.50;99.90
17489;DHT22;8861;52.644;4.734;2023-02-15T00:19:33;2.50;99.90
17489;DHT22;8861;52.644;4.734;2023-02-15T00:22:00;2.50;99.90
17489;DHT22;8861;52.644;4.734;2023-02-15T00:24:27;2.50;99.90
17489;DHT22;8861;52.644;4.734;2023-02-15T00:26:54;2.50;99.90
17489;DHT22;8861;52.644;4.734;2023-02-15T00:29:21;2.50;99.90
17489;DHT22;8861;52.644;4.734;2023-02-15T00:31:48;2.40;99.90
17489;DHT22;8861;52.644;4.734;2023-02-15T00:34:18;2.40;99.90
17489;DHT22;8861;52.644;4.734;2023-02-15T00:36:47;2.50;99.90
17489;DHT22;8861;52.644;4.734;2023-02-15T00:39:14;2.50;99.90
17489;DHT22;8861;52.644;4.734;2023-02-15T00:41:41;2.50;99.90
17489;DHT22;8861;52.644;4.734;2023-02-15T00:44:09;2.50;99.90
17489;DHT22;8861;52.644;4.734;2023-02-15T00:46:36;2.50;99.90
17489;DHT22;8861;52.644;4.734;2023-02-15T00:49:04;2.40;99.90
17489;DHT22;8861;52.644;4.734;2023-02-15T00:51:31;2.40;99.90
17489;DHT22;8861;52.644;4.734;2023-02-15T00:53:59;2.50;99.90
17489;DHT22;8861;52.644;4.734;2023-02-15T00:56:26;2.40;99.90
17489;DHT22;8861;52.644;4.734;2023-02-15T00:58:54;2.50;99.90
17489;DHT22;8861;52.644;4.734;2023-02-15T01:01:21;2.50;99.90
17489;DHT22;8861;52.644;4.734;2023-02-15T01:03:49;2.50;99.90
17489;DHT22;8861;52.644;4.734;2023-02-15T01:06:16;2.50;99.90
17489;DHT22;8861;52.644;4.734;2023-02-15T01:08:44;2.50;99.90
17489;DHT22;8861;52.644;4.734;2023-02-15T01:11:14;2.50;99.90
17489;DHT22;8861;52.644;4.734;2023-02-15T01:13:47;2.50;99.90
17489;DHT22;8861;52.644;4.734;2023-02-15T01:16:14;2.50;99.90
17489;DHT22;8861;52.644;4.734;2023-02-15T01:18:41;2.60;99.90
17489;DHT22;8861;52.644;4.734;2023-02-15T01:21:10;2.60;99.90
17489;DHT22;8861;52.644;4.734;2023-02-15T01:23:39;2.60;99.90
17489;DHT22;8861;52.644;4.734;2023-02-15T01:26:06;2.60;99.90
17489;DHT22;8861;52.644;4.734;2023-02-15T01:28:35;2.60;99.90
17489;DHT22;8861;52.644;4.734;2023-02-15T01:31:05;2.60;99.90
17489;DHT22;8861;52.644;4.734;2023-02-15T01:33:33;2.60;99.90
17489;DHT22;8861;52.644;4.734;2023-02-15T01:36:00;2.60;99.90
17489;DHT22;8861;52.644;4.734;2023-02-15T01:38:27;2.60;99.90
17489;DHT22;8861;52.644;4.734;2023-02-15T01:40:54;2.60;99.90
17489;DHT22;8861;52.644;4.734;2023-02-15T01:43:47;2.60;99.90
17489;DHT22;8861;52.644;4.734;2023-02-15T01:46:15;2.60;99.90
17489;DHT22;8861;52.644;4.734;2023-02-15T01:48:46;2.60;99.90
17489;DHT22;8861;52.644;4.734;2023-02-15T01:51:14;2.60;99.90
17489;DHT22;8861;52.644;4.734;2023-02-15T01:53:48;2.60;99.90
17489;DHT22;8861;52.644;4.734;2023-02-15T01:56:19;2.60;99.90
17489;DHT22;8861;52.644;4.734;2023-02-15T01:58:49;2.60;99.90
17489;DHT22;8861;52.644;4.734;2023-02-15T02:01:18;2.60;99.90
17489;DHT22;8861;52.644;4.734;2023-02-15T02:03:53;2.60;99.90
17489;DHT22;8861;52.644;4.734;2023-02-15T02:06:22;2.50;99.90
17489;DHT22;8861;52.644;4.734;2023-02-15T02:08:50;2.50;99.90
17489;DHT22;8861;52.644;4.734;2023-02-15T02:11:18;2.50;99.90
17489;DHT22;8861;52.644;4.734;2023-02-15T02:13:45;2.50;99.90
17489;DHT22;8861;52.644;4.734;2023-02-15T02:16:19;2.40;99.90
17489;DHT22;8861;52.644;4.734;2023-02-15T02:18:57;2.40;99.90
17489;DHT22;8861;52.644;4.734;2023-02-15T02:27:44;2.30;99.90
17489;DHT22;8861;52.644;4.734;2023-02-15T02:36:19;2.30;99.90
17489;DHT22;8861;52.644;4.734;2023-02-15T02:38:58;2.30;99.90
17489;DHT22;8861;52.644;4.734;2023-02-15T02:41:34;2.30;99.90
17489;DHT22;8861;52.644;4.734;2023-02-15T02:44:08;2.30;99.90
17489;DHT22;8861;52.644;4.734;2023-02-15T02:46:41;2.30;99.90
17489;DHT22;8861;52.644;4.734;2023-02-15T02:49:11;2.30;99.90
17489;DHT22;8861;52.644;4.734;2023-02-15T02:51:38;2.30;99.90
17489;DHT22;8861;52.644;4.734;2023-02-15T02:54:06;2.30;99.90
17489;DHT22;8861;52.644;4.734;2023-02-15T02:56:37;2.30;99.90
17489;DHT22;8861;52.644;4.734;2023-02-15T02:59:07;2.30;99.90
17489;DHT22;8861;52.644;4.734;2023-02-15T03:01:41;2.20;99.90
17489;DHT22;8861;52.644;4.734;2023-02-15T03:04:12;2.20;99.90
17489;DHT22;8861;52.644;4.734;2023-02-15T03:06:45;2.20;99.90
17489;DHT22;8861;52.644;4.734;2023-02-15T03:09:17;2.20;99.90
17489;DHT22;8861;52.644;4.734;2023-02-15T03:11:48;2.20;99.90
17489;DHT22;8861;52.644;4.734;2023-02-15T03:14:17;2.20;99.90
17489;DHT22;8861;52.644;4.734;2023-02-15T03:16:47;2.20;99.90
17489;DHT22;8861;52.644;4.734;2023-02-15T03:19:19;2.10;99.90
17489;DHT22;8861;52.644;4.734;2023-02-15T03:21:49;2.10;99.90
17489;DHT22;8861;52.644;4.734;2023-02-15T03:24:24;2.10;99.90
17489;DHT22;8861;52.644;4.734;2023-02-15T03:26:53;2.10;99.90
17489;DHT22;8861;52.644;4.734;2023-02-15T03:29:27;2.00;99.90
17489;DHT22;8861;52.644;4.734;2023-02-15T03:32:00;2.00;99.90
17489;DHT22;8861;52.644;4.734;2023-02-15T03:34:29;2.00;99.90
17489;DHT22;8861;52.644;4.734;2023-02-15T03:36:59;2.00;99.90
17489;DHT22;8861;52.644;4.734;2023-02-15T03:39:33;1.90;99.90
17489;DHT22;8861;52.644;4.734;2023-02-15T03:42:09;1.90;99.90
17489;DHT22;8861;52.644;4.734;2023-02-15T03:44:46;1.90;99.90
17489;DHT22;8861;52.644;4.734;2023-02-15T03:47:17;1.90;99.90
17489;DHT22;8861;52.644;4.734;2023-02-15T03:49:50;1.80;99.90
17489;DHT22;8861;52.644;4.734;2023-02-15T03:52:20;1.80;99.90
17489;DHT22;8861;52.644;4.734;2023-02-15T03:54:48;1.80;99.90
17489;DHT22;8861;52.644;4.734;2023-02-15T03:57:19;1.70;99.90
17489;DHT22;8861;52.644;4.734;2023-02-15T04:00:09;1.70;99.90
17489;DHT22;8861;52.644;4.734;2023-02-15T04:03:12;1.70;99.90
17489;DHT22;8861;52.644;4.734;2023-02-15T04:05:44;1.70;99.90
17489;DHT22;8861;52.644;4.734;2023-02-15T04:08:12;1.60;99.90
17489;DHT22;8861;52.644;4.734;2023-02-15T04:10:39;1.60;99.90
17489;DHT22;8861;52.644;4.734;2023-02-15T04:13:18;1.60;99.90
17489;DHT22;8861;52.644;4.734;2023-02-15T04:15:45;1.60;99.90
17489;DHT22;8861;52.644;4.734;2023-02-15T04:18:30;1.50;99.90
17489;DHT22;8861;52.644;4.734;2023-02-15T04:21:16;1.50;99.90
17489;DHT22;8861;52.644;4.734;2023-02-15T04:24:00;1.50;99.90
17489;DHT22;8861;52.644;4.734;2023-02-15T04:26:44;1.50;99.90
17489;DHT22;8861;52.644;4.734;2023-02-15T04:29:13;1.50;99.90
17489;DHT22;8861;52.644;4.734;2023-02-15T04:31:40;1.50;99.90
17489;DHT22;8861;52.644;4.734;2023-02-15T04:34:08;1.50;99.90
17489;DHT22;8861;52.644;4.734;2023-02-15T04:36:36;1.40;99.90
17489;DHT22;8861;52.644;4.734;2023-02-15T04:39:04;1.40;99.90
17489;DHT22;8861;52.644;4.734;2023-02-15T04:41:31;1.50;99.90
17489;DHT22;8861;52.644;4.734;2023-02-15T04:43:58;1.50;99.90
17489;DHT22;8861;52.644;4.734;2023-02-15T04:46:26;1.50;99.90
17489;DHT22;8861;52.644;4.734;2023-02-15T04:48:54;1.50;99.90
17489;DHT22;8861;52.644;4.734;2023-02-15T04:51:21;1.50;99.90
17489;DHT22;8861;52.644;4.734;2023-02-15T04:53:50;1.40;99.90
17489;DHT22;8861;52.644;4.734;2023-02-15T04:56:18;1.40;99.90
17489;DHT22;8861;52.644;4.734;2023-02-15T04:58:45;1.40;99.90
17489;DHT22;8861;52.644;4.734;2023-02-15T05:01:12;1.40;99.90
17489;DHT22;8861;52.644;4.734;2023-02-15T05:03:39;1.40;99.90
17489;DHT22;8861;52.644;4.734;2023-02-15T05:06:06;1.40;99.90
17489;DHT22;8861;52.644;4.734;2023-02-15T05:08:33;1.40;99.90
17489;DHT22;8861;52.644;4.734;2023-02-15T05:11:01;1.40;99.90
17489;DHT22;8861;52.644;4.734;2023-02-15T05:13:29;1.40;99.90
17489;DHT22;8861;52.644;4.734;2023-02-15T05:15:55;1.40;99.90
17489;DHT22;8861;52.644;4.734;2023-02-15T05:18:22;1.30;99.90
17489;DHT22;8861;52.644;4.734;2023-02-15T05:20:50;1.40;99.90
17489;DHT22;8861;52.644;4.734;2023-02-15T05:23:16;1.40;99.90
17489;DHT22;8861;52.644;4.734;2023-02-15T05:25:47;1.40;99.90
17489;DHT22;8861;52.644;4.734;2023-02-15T05:28:33;1.40;99.90
17489;DHT22;8861;52.644;4.734;2023-02-15T05:31:03;1.30;99.90
17489;DHT22;8861;52.644;4.734;2023-02-15T05:33:31;1.40;99.90
17489;DHT22;8861;52.644;4.734;2023-02-15T05:35:58;1.40;99.90
17489;DHT22;8861;52.644;4.734;2023-02-15T05:38:25;1.30;99.90
17489;DHT22;8861;52.644;4.734;2023-02-15T05:40:52;1.30;99.90
17489;DHT22;8861;52.644;4.734;2023-02-15T05:43:20;1.30;99.90
17489;DHT22;8861;52.644;4.734;2023-02-15T05:45:49;1.30;99.90
17489;DHT22;8861;52.644;4.734;2023-02-15T05:48:17;1.30;99.90
17489;DHT22;8861;52.644;4.734;2023-02-15T05:50:44;1.30;99.90
17489;DHT22;8861;52.644;4.734;2023-02-15T05:53:12;1.30;99.90
17489;DHT22;8861;52.644;4.734;2023-02-15T05:55:39;1.30;99.90
17489;DHT22;8861;52.644;4.734;2023-02-15T05:58:06;1.30;99.90
17489;DHT22;8861;52.644;4.734;2023-02-15T06:00:34;1.30;99.90
17489;DHT22;8861;52.644;4.734;2023-02-15T06:03:02;1.30;99.90
17489;DHT22;8861;52.644;4.734;2023-02-15T06:05:29;1.30;99.90
17489;DHT22;8861;52.644;4.734;2023-02-15T06:07:56;1.30;99.90
17489;DHT22;8861;52.644;4.734;2023-02-15T06:10:23;1.30;99.90
17489;DHT22;8861;52.644;4.734;2023-02-15T06:12:50;1.40;99.90
17489;DHT22;8861;52.644;4.734;2023-02-15T06:15:17;1.50;99.90
17489;DHT22;8861;52.644;4.734;2023-02-15T06:17:44;1.50;99.90
17489;DHT22;8861;52.644;4.734;2023-02-15T06:20:13;1.60;99.90
17489;DHT22;8861;52.644;4.734;2023-02-15T06:22:40;1.60;99.90
17489;DHT22;8861;52.644;4.734;2023-02-15T06:25:07;1.70;99.90
17489;DHT22;8861;52.644;4.734;2023-02-15T06:27:35;1.70;99.90
17489;DHT22;8861;52.644;4.734;2023-02-15T06:30:04;1.70;99.90
17489;DHT22;8861;52.644;4.734;2023-02-15T06:32:31;1.70;99.90
17489;DHT22;8861;52.644;4.734;2023-02-15T06:34:58;1.80;99.90
17489;DHT22;8861;52.644;4.734;2023-02-15T06:37:26;1.80;99.90
17489;DHT22;8861;52.644;4.734;2023-02-15T06:39:53;1.80;99.90
17489;DHT22;8861;52.644;4.734;2023-02-15T06:42:20;1.90;99.90
17489;DHT22;8861;52.644;4.734;2023-02-15T06:44:47;2.00;99.90
17489;DHT22;8861;52.644;4.734;2023-02-15T06:47:14;2.00;99.90
17489;DHT22;8861;52.644;4.734;2023-02-15T06:49:41;2.10;99.90
17489;DHT22;8861;52.644;4.734;2023-02-15T06:52:08;2.20;99.90
17489;DHT22;8861;52.644;4.734;2023-02-15T06:54:37;2.20;99.90
17489;DHT22;8861;52.644;4.734;2023-02-15T06:57:04;2.30;99.90
17489;DHT22;8861;52.644;4.734;2023-02-15T06:59:31;2.30;99.90
17489;DHT22;8861;52.644;4.734;2023-02-15T07:01:57;2.40;99.90
17489;DHT22;8861;52.644;4.734;2023-02-15T07:04:24;2.50;99.90
17489;DHT22;8861;52.644;4.734;2023-02-15T07:06:54;2.60;99.90
17489;DHT22;8861;52.644;4.734;2023-02-15T07:09:21;2.60;99.90
17489;DHT22;8861;52.644;4.734;2023-02-15T07:11:49;2.70;99.90
17489;DHT22;8861;52.644;4.734;2023-02-15T07:14:34;2.80;99.90
17489;DHT22;8861;52.644;4.734;2023-02-15T07:17:00;2.80;99.90
17489;DHT22;8861;52.644;4.734;2023-02-15T07:19:27;2.80;99.90
17489;DHT22;8861;52.644;4.734;2023-02-15T07:21:55;2.80;99.90
17489;DHT22;8861;52.644;4.734;2023-02-15T07:24:22;2.80;99.90
17489;DHT22;8861;52.644;4.734;2023-02-15T07:26:50;2.80;99.90
17489;DHT22;8861;52.644;4.734;2023-02-15T07:29:17;2.80;99.90
17489;DHT22;8861;52.644;4.734;2023-02-15T07:31:44;2.80;99.90
17489;DHT22;8861;52.644;4.734;2023-02-15T07:34:11;2.80;99.90
17489;DHT22;8861;52.644;4.734;2023-02-15T07:36:38;2.80;99.90
17489;DHT22;8861;52.644;4.734;2023-02-15T07:39:05;2.90;99.90
17489;DHT22;8861;52.644;4.734;2023-02-15T07:41:32;2.90;99.90
17489;DHT22;8861;52.644;4.734;2023-02-15T07:44:00;2.90;99.90
17489;DHT22;8861;52.644;4.734;2023-02-15T07:46:27;2.90;99.90
17489;DHT22;8861;52.644;4.734;2023-02-15T07:48:55;3.00;99.90
17489;DHT22;8861;52.644;4.734;2023-02-15T07:51:22;3.00;99.90
17489;DHT22;8861;52.644;4.734;2023-02-15T07:53:49;3.10;99.90
17489;DHT22;8861;52.644;4.734;2023-02-15T07:56:17;3.10;99.90
17489;DHT22;8861;52.644;4.734;2023-02-15T07:58:44;3.20;99.90
17489;DHT22;8861;52.644;4.734;2023-02-15T08:01:24;3.20;99.90
17489;DHT22;8861;52.644;4.734;2023-02-15T08:03:51;3.30;99.90
17489;DHT22;8861;52.644;4.734;2023-02-15T08:06:20;3.30;99.90
17489;DHT22;8861;52.644;4.734;2023-02-15T08:08:48;3.40;99.90
17489;DHT22;8861;52.644;4.734;2023-02-15T08:11:17;3.50;99.90
17489;DHT22;8861;52.644;4.734;2023-02-15T08:14:00;3.50;99.90
17489;DHT22;8861;52.644;4.734;2023-02-15T08:16:32;3.60;99.90
17489;DHT22;8861;52.644;4.734;2023-02-15T08:19:01;3.60;99.90
17489;DHT22;8861;52.644;4.734;2023-02-15T08:21:29;3.70;99.90
17489;DHT22;8861;52.644;4.734;2023-02-15T08:23:57;3.80;99.90
17489;DHT22;8861;52.644;4.734;2023-02-15T08:26:26;3.90;99.90
17489;DHT22;8861;52.644;4.734;2023-02-15T08:28:53;4.00;99.90
17489;DHT22;8861;52.644;4.734;2023-02-15T08:31:20;4.10;99.90
17489;DHT22;8861;52.644;4.734;2023-02-15T08:33:51;4.10;99.90
17489;DHT22;8861;52.644;4.734;2023-02-15T08:36:20;4.20;99.90
17489;DHT22;8861;52.644;4.734;2023-02-15T08:38:47;4.20;99.90
17489;DHT22;8861;52.644;4.734;2023-02-15T08:41:16;4.30;99.90
17489;DHT22;8861;52.644;4.734;2023-02-15T08:43:45;4.40;99.90
17489;DHT22;8861;52.644;4.734;2023-02-15T08:46:14;4.40;99.90
17489;DHT22;8861;52.644;4.734;2023-02-15T08:48:41;4.50;99.90
17489;DHT22;8861;52.644;4.734;2023-02-15T08:51:11;4.60;99.90
17489;DHT22;8861;52.644;4.734;2023-02-15T08:53:40;4.70;99.90
17489;DHT22;8861;52.644;4.734;2023-02-15T08:56:08;4.70;99.90
17489;DHT22;8861;52.644;4.734;2023-02-15T08:58:35;4.80;99.90
17489;DHT22;8861;52.644;4.734;2023-02-15T09:01:09;4.80;99.90
17489;DHT22;8861;52.644;4.734;2023-02-15T09:03:36;4.90;99.90
17489;DHT22;8861;52.644;4.734;2023-02-15T09:06:03;5.00;99.90
17489;DHT22;8861;52.644;4.734;2023-02-15T09:08:32;5.20;99.90
17489;DHT22;8861;52.644;4.734;2023-02-15T09:11:07;5.30;99.90
17489;DHT22;8861;52.644;4.734;2023-02-15T09:13:34;5.50;99.90
17489;DHT22;8861;52.644;4.734;2023-02-15T09:16:02;5.60;99.90
17489;DHT22;8861;52.644;4.734;2023-02-15T09:18:31;5.80;99.90
17489;DHT22;8861;52.644;4.734;2023-02-15T09:21:05;5.90;99.90
17489;DHT22;8861;52.644;4.734;2023-02-15T09:23:33;5.90;99.90
17489;DHT22;8861;52.644;4.734;2023-02-15T09:26:05;6.00;99.90
17489;DHT22;8861;52.644;4.734;2023-02-15T09:28:32;6.10;99.90
17489;DHT22;8861;52.644;4.734;2023-02-15T09:31:10;6.20;99.90
17489;DHT22;8861;52.644;4.734;2023-02-15T09:33:38;6.30;99.90
17489;DHT22;8861;52.644;4.734;2023-02-15T09:36:13;6.30;99.90
17489;DHT22;8861;52.644;4.734;2023-02-15T09:38:42;6.40;99.90
17489;DHT22;8861;52.644;4.734;2023-02-15T09:44:11;6.50;99.90
17489;DHT22;8861;52.644;4.734;2023-02-15T09:46:52;6.60;99.90
17489;DHT22;8861;52.644;4.734;2023-02-15T09:49:27;6.60;99.90
17489;DHT22;8861;52.644;4.734;2023-02-15T09:55:21;6.60;99.90
17489;DHT22;8861;52.644;4.734;2023-02-15T09:57:56;6.60;99.90
17489;DHT22;8861;52.644;4.734;2023-02-15T10:00:31;6.60;99.90
17489;DHT22;8861;52.644;4.734;2023-02-15T10:03:15;6.80;99.90
17489;DHT22;8861;52.644;4.734;2023-02-15T10:05:58;6.80;99.90
17489;DHT22;8861;52.644;4.734;2023-02-15T10:08:44;6.90;99.90
17489;DHT22;8861;52.644;4.734;2023-02-15T10:11:16;7.00;99.90
17489;DHT22;8861;52.644;4.734;2023-02-15T10:14:18;7.10;99.90
17489;DHT22;8861;52.644;4.734;2023-02-15T10:16:56;7.10;99.90
17489;DHT22;8861;52.644;4.734;2023-02-15T10:19:35;7.20;99.90
17489;DHT22;8861;52.644;4.734;2023-02-15T10:22:15;7.20;99.90
17489;DHT22;8861;52.644;4.734;2023-02-15T10:25:05;7.20;99.90
17489;DHT22;8861;52.644;4.734;2023-02-15T10:27:44;7.20;99.90
17489;DHT22;8861;52.644;4.734;2023-02-15T10:30:13;7.20;99.90
17489;DHT22;8861;52.644;4.734;2023-02-15T10:32:49;7.30;99.90
17489;DHT22;8861;52.644;4.734;2023-02-15T10:35:24;7.40;99.90
17489;DHT22;8861;52.644;4.734;2023-02-15T10:38:10;7.40;99.90
17489;DHT22;8861;52.644;4.734;2023-02-15T10:40:51;7.50;99.90
17489;DHT22;8861;52.644;4.734;2023-02-15T10:43:35;7.60;99.90
17489;DHT22;8861;52.644;4.734;2023-02-15T10:46:08;7.60;99.90
17489;DHT22;8861;52.644;4.734;2023-02-15T10:48:56;7.70;99.90
17489;DHT22;8861;52.644;4.734;2023-02-15T10:51:34;7.80;99.90
17489;DHT22;8861;52.644;4.734;2023-02-15T10:54:13;7.90;99.90
17489;DHT22;8861;52.644;4.734;2023-02-15T10:56:51;7.90;99.90
17489;DHT22;8861;52.644;4.734;2023-02-15T10:59:44;8.00;99.90
17489;DHT22;8861;52.644;4.734;2023-02-15T11:02:23;8.10;99.90
17489;DHT22;8861;52.644;4.734;2023-02-15T11:04:57;8.20;99.90
17489;DHT22;8861;52.644;4.734;2023-02-15T11:07:29;8.20;99.90
17489;DHT22;8861;52.644;4.734;2023-02-15T11:10:05;8.30;99.90
17489;DHT22;8861;52.644;4.734;2023-02-15T11:12:33;8.30;99.90
17489;DHT22;8861;52.644;4.734;2023-02-15T11:15:09;8.40;99.90
17489;DHT22;8861;52.644;4.734;2023-02-15T11:17:40;8.50;99.90
17489;DHT22;8861;52.644;4.734;2023-02-15T11:20:17;8.60;99.90
17489;DHT22;8861;52.644;4.734;2023-02-15T11:22:48;8.80;99.90
17489;DHT22;8861;52.644;4.734;2023-02-15T11:25:19;9.00;99.90
17489;DHT22;8861;52.644;4.734;2023-02-15T11:27:49;9.10;99.90
17489;DHT22;8861;52.644;4.734;2023-02-15T11:30:22;9.20;99.90
17489;DHT22;8861;52.644;4.734;2023-02-15T11:32:52;9.20;99.90
17489;DHT22;8861;52.644;4.734;2023-02-15T11:35:24;9.20;99.90
17489;DHT22;8861;52.644;4.734;2023-02-15T11:37:58;9.20;99.90
17489;DHT22;8861;52.644;4.734;2023-02-15T11:40:30;9.20;99.90
17489;DHT22;8861;52.644;4.734;2023-02-15T11:43:02;9.20;99.90
17489;DHT22;8861;52.644;4.734;2023-02-15T11:45:32;9.30;99.90
17489;DHT22;8861;52.644;4.734;2023-02-15T11:48:00;9.40;99.90
17489;DHT22;8861;52.644;4.734;2023-02-15T11:50:29;9.40;99.90
17489;DHT22;8861;52.644;4.734;2023-02-15T11:52:59;9.40;99.90
17489;DHT22;8861;52.644;4.734;2023-02-15T11:55:28;9.50;99.90
17489;DHT22;8861;52.644;4.734;2023-02-15T11:58:01;9.60;99.90
17489;DHT22;8861;52.644;4.734;2023-02-15T12:00:36;9.60;99.90
17489;DHT22;8861;52.644;4.734;2023-02-15T12:03:11;9.70;99.90
17489;DHT22;8861;52.644;4.734;2023-02-15T12:05:41;9.70;99.90
17489;DHT22;8861;52.644;4.734;2023-02-15T12:08:14;9.70;99.90
17489;DHT22;8861;52.644;4.734;2023-02-15T12:10:50;9.70;99.90
17489;DHT22;8861;52.644;4.734;2023-02-15T12:13:20;9.70;99.90
17489;DHT22;8861;52.644;4.734;2023-02-15T12:15:51;9.80;99.90
17489;DHT22;8861;52.644;4.734;2023-02-15T12:18:24;9.80;99.90
17489;DHT22;8861;52.644;4.734;2023-02-15T12:20:58;9.90;99.90
17489;DHT22;8861;52.644;4.734;2023-02-15T12:23:27;10.10;99.90
17489;DHT22;8861;52.644;4.734;2023-02-15T12:25:56;10.20;99.90
17489;DHT22;8861;52.644;4.734;2023-02-15T12:28:26;10.30;99.90
17489;DHT22;8861;52.644;4.734;2023-02-15T12:31:00;10.50;99.90
17489;DHT22;8861;52.644;4.734;2023-02-15T12:33:30;10.60;99.90
17489;DHT22;8861;52.644;4.734;2023-02-15T12:36:01;10.80;99.90
17489;DHT22;8861;52.644;4.734;2023-02-15T12:38:29;11.00;99.90
17489;DHT22;8861;52.644;4.734;2023-02-15T12:40:58;11.00;99.90
17489;DHT22;8861;52.644;4.734;2023-02-15T12:43:27;11.10;99.90
17489;DHT22;8861;52.644;4.734;2023-02-15T12:46:14;11.20;99.90
17489;DHT22;8861;52.644;4.734;2023-02-15T12:48:45;11.20;99.90
17489;DHT22;8861;52.644;4.734;2023-02-15T12:51:15;11.20;99.90
17489;DHT22;8861;52.644;4.734;2023-02-15T12:53:42;11.20;99.90
17489;DHT22;8861;52.644;4.734;2023-02-15T12:56:10;11.20;99.90
17489;DHT22;8861;52.644;4.734;2023-02-15T12:58:38;11.20;99.90
17489;DHT22;8861;52.644;4.734;2023-02-15T13:01:15;11.20;99.90
17489;DHT22;8861;52.644;4.734;2023-02-15T13:03:56;11.20;99.90
17489;DHT22;8861;52.644;4.734;2023-02-15T13:06:25;11.20;99.90
17489;DHT22;8861;52.644;4.734;2023-02-15T13:08:54;11.20;99.90
17489;DHT22;8861;52.644;4.734;2023-02-15T13:11:25;11.20;99.90
17489;DHT22;8861;52.644;4.734;2023-02-15T13:13:56;11.30;99.90
17489;DHT22;8861;52.644;4.734;2023-02-15T13:16:30;11.30;99.90
17489;DHT22;8861;52.644;4.734;2023-02-15T13:19:01;11.40;99.90
17489;DHT22;8861;52.644;4.734;2023-02-15T13:21:32;11.40;99.90
17489;DHT22;8861;52.644;4.734;2023-02-15T13:24:05;11.40;99.90
17489;DHT22;8861;52.644;4.734;2023-02-15T13:26:34;11.40;99.90
17489;DHT22;8861;52.644;4.734;2023-02-15T13:29:06;11.40;99.90
17489;DHT22;8861;52.644;4.734;2023-02-15T13:31:36;11.30;99.90
17489;DHT22;8861;52.644;4.734;2023-02-15T13:34:09;11.20;99.90
17489;DHT22;8861;52.644;4.734;2023-02-15T13:36:46;11.20;99.90
17489;DHT22;8861;52.644;4.734;2023-02-15T13:39:23;11.10;99.90
17489;DHT22;8861;52.644;4.734;2023-02-15T13:41:56;11.10;99.90
17489;DHT22;8861;52.644;4.734;2023-02-15T13:47:34;11.10;99.90
17489;DHT22;8861;52.644;4.734;2023-02-15T13:50:19;11.10;99.90
17489;DHT22;8861;52.644;4.734;2023-02-15T13:52:53;11.20;99.90
17489;DHT22;8861;52.644;4.734;2023-02-15T13:55:31;11.20;99.90
17489;DHT22;8861;52.644;4.734;2023-02-15T13:58:25;11.30;99.90
17489;DHT22;8861;52.644;4.734;2023-02-15T14:01:01;11.30;99.90
17489;DHT22;8861;52.644;4.734;2023-02-15T14:04:03;11.30;99.90
17489;DHT22;8861;52.644;4.734;2023-02-15T14:09:44;11.40;99.90
17489;DHT22;8861;52.644;4.734;2023-02-15T14:12:35;11.40;99.90
17489;DHT22;8861;52.644;4.734;2023-02-15T14:15:18;11.40;99.90
17489;DHT22;8861;52.644;4.734;2023-02-15T14:17:55;11.40;99.90
17489;DHT22;8861;52.644;4.734;2023-02-15T14:20:36;11.40;99.90
17489;DHT22;8861;52.644;4.734;2023-02-15T14:23:12;11.40;99.90
17489;DHT22;8861;52.644;4.734;2023-02-15T14:25:44;11.50;99.90
17489;DHT22;8861;52.644;4.734;2023-02-15T14:28:16;11.60;99.90
17489;DHT22;8861;52.644;4.734;2023-02-15T14:30:49;11.60;99.90
17489;DHT22;8861;52.644;4.734;2023-02-15T14:33:31;11.70;99.90
17489;DHT22;8861;52.644;4.734;2023-02-15T14:36:00;11.60;99.90
17489;DHT22;8861;52.644;4.734;2023-02-15T14:38:40;11.60;99.90
17489;DHT22;8861;52.644;4.734;2023-02-15T14:41:12;11.60;99.90
17489;DHT22;8861;52.644;4.734;2023-02-15T14:43:47;11.60;99.90
17489;DHT22;8861;52.644;4.734;2023-02-15T14:46:22;11.60;99.90
17489;DHT22;8861;52.644;4.734;2023-02-15T14:48:53;11.60;99.90
17489;DHT22;8861;52.644;4.734;2023-02-15T14:51:59;11.70;99.90
17489;DHT22;8861;52.644;4.734;2023-02-15T14:54:57;11.70;99.90
17489;DHT22;8861;52.644;4.734;2023-02-15T14:57:26;11.80;99.90
17489;DHT22;8861;52.644;4.734;2023-02-15T14:59:56;11.90;99.90
17489;DHT22;8861;52.644;4.734;2023-02-15T15:02:29;11.80;99.90
17489;DHT22;8861;52.644;4.734;2023-02-15T15:05:00;11.80;99.90
17489;DHT22;8861;52.644;4.734;2023-02-15T15:07:37;11.70;99.90
17489;DHT22;8861;52.644;4.734;2023-02-15T15:10:23;11.70;99.90
17489;DHT22;8861;52.644;4.734;2023-02-15T15:12:55;11.50;99.90
17489;DHT22;8861;52.644;4.734;2023-02-15T15:15:33;11.50;99.90
17489;DHT22;8861;52.644;4.734;2023-02-15T15:18:03;11.40;99.90
17489;DHT22;8861;52.644;4.734;2023-02-15T15:20:42;11.40;99.90
17489;DHT22;8861;52.644;4.734;2023-02-15T15:23:45;11.30;99.90
17489;DHT22;8861;52.644;4.734;2023-02-15T15:26:24;11.20;99.90
17489;DHT22;8861;52.644;4.734;2023-02-15T15:28:56;11.10;99.90
17489;DHT22;8861;52.644;4.734;2023-02-15T15:31:26;11.00;99.90
17489;DHT22;8861;52.644;4.734;2023-02-15T15:34:21;10.90;99.90
17489;DHT22;8861;52.644;4.734;2023-02-15T15:40:29;10.80;99.90
17489;DHT22;8861;52.644;4.734;2023-02-15T15:43:31;10.70;99.90
17489;DHT22;8861;52.644;4.734;2023-02-15T15:46:18;10.60;99.90
17489;DHT22;8861;52.644;4.734;2023-02-15T15:48:49;10.50;99.90
17489;DHT22;8861;52.644;4.734;2023-02-15T15:51:20;10.50;99.90
17489;DHT22;8861;52.644;4.734;2023-02-15T15:53:51;10.50;99.90
17489;DHT22;8861;52.644;4.734;2023-02-15T15:56:22;10.50;99.90
17489;DHT22;8861;52.644;4.734;2023-02-15T15:58:53;10.50;99.90
17489;DHT22;8861;52.644;4.734;2023-02-15T16:01:26;10.50;99.90
17489;DHT22;8861;52.644;4.734;2023-02-15T16:03:55;10.40;99.90
17489;DHT22;8861;52.644;4.734;2023-02-15T16:06:34;10.40;99.90
17489;DHT22;8861;52.644;4.734;2023-02-15T16:09:12;10.40;99.90
17489;DHT22;8861;52.644;4.734;2023-02-15T16:11:41;10.40;99.90
17489;DHT22;8861;52.644;4.734;2023-02-15T16:14:14;10.40;99.90
17489;DHT22;8861;52.644;4.734;2023-02-15T16:16:48;10.40;99.90
17489;DHT22;8861;52.644;4.734;2023-02-15T16:19:26;10.30;99.90
17489;DHT22;8861;52.644;4.734;2023-02-15T16:21:54;10.30;99.90
17489;DHT22;8861;52.644;4.734;2023-02-15T16:24:26;10.20;99.90
17489;DHT22;8861;52.644;4.734;2023-02-15T16:30:32;10.20;99.90
17489;DHT22;8861;52.644;4.734;2023-02-15T16:33:07;10.10;99.90
17489;DHT22;8861;52.644;4.734;2023-02-15T16:35:35;10.10;99.90
17489;DHT22;8861;52.644;4.734;2023-02-15T16:38:04;10.00;99.90
17489;DHT22;8861;52.644;4.734;2023-02-15T16:40:49;9.90;99.90
17489;DHT22;8861;52.644;4.734;2023-02-15T16:43:22;9.80;99.90
17489;DHT22;8861;52.644;4.734;2023-02-15T16:46:03;9.80;99.90
17489;DHT22;8861;52.644;4.734;2023-02-15T16:48:32;9.70;99.90
17489;DHT22;8861;52.644;4.734;2023-02-15T16:51:01;9.70;99.90
17489;DHT22;8861;52.644;4.734;2023-02-15T16:53:28;9.70;99.90
17489;DHT22;8861;52.644;4.734;2023-02-15T16:55:58;9.60;99.90
17489;DHT22;8861;52.644;4.734;2023-02-15T16:58:32;9.60;99.90
17489;DHT22;8861;52.644;4.734;2023-02-15T17:01:07;9.60;99.90